sensor_id;sensor_type;location;lat;lon;timestamp;P1;durP1;ratioP1;P2;durP2;ratioP2
53652;SDS011;39553;52.954;5.932;2023-05-10T00:00:08;15.38;;;8.45;;
53652;SDS011;39553;52.954;5.932;2023-05-10T00:02:35;22.70;;;14.00;;
53652;SDS011;39553;52.954;5.932;2023-05-10T00:05:01;19.58;;;10.52;;
53652;SDS011;39553;52.954;5.932;2023-05-10T00:07:27;20.55;;;13.32;;
53652;SDS011;39553;52.954;5.932;2023-05-10T00:09:56;13.73;;;9.15;;
53652;SDS011;39553;52.954;5.932;2023-05-10T00:12:22;14.82;;;9.02;;
53652;SDS011;39553;52.954;5.932;2023-05-10T00:14:48;15.63;;;10.02;;
53652;SDS011;39553;52.954;5.932;2023-05-10T00:17:15;12.35;;;7.28;;
53652;SDS011;39553;52.954;5.932;2023-05-10T00:19:41;15.07;;;9.50;;
53652;SDS011;39553;52.954;5.932;2023-05-10T00:22:07;14.27;;;10.55;;
53652;SDS011;39553;52.954;5.932;2023-05-10T00:24:33;11.27;;;7.32;;
53652;SDS011;39553;52.954;5.932;2023-05-10T00:26:59;13.38;;;8.23;;
53652;SDS011;39553;52.954;5.932;2023-05-10T00:29:25;14.82;;;8.35;;
53652;SDS011;39553;52.954;5.932;2023-05-10T00:31:53;21.60;;;12.63;;
53652;SDS011;39553;52.954;5.932;2023-05-10T00:34:19;19.23;;;11.25;;
53652;SDS011;39553;52.954;5.932;2023-05-10T00:36:45;16.50;;;8.77;;
53652;SDS011;39553;52.954;5.932;2023-05-10T00:39:14;11.80;;;6.32;;
53652;SDS011;39553;52.954;5.932;2023-05-10T00:41:40;23.95;;;13.00;;
53652;SDS011;39553;52.954;5.932;2023-05-10T00:44:06;10.60;;;5.22;;
53652;SDS011;39553;52.954;5.932;2023-05-10T00:46:32;16.27;;;9.25;;
53652;SDS011;39553;52.954;5.932;2023-05-10T00:48:58;16.90;;;9.98;;
53652;SDS011;39553;52.954;5.932;2023-05-10T00:51:24;23.40;;;10.63;;
53652;SDS011;39553;52.954;5.932;2023-05-10T00:53:51;25.25;;;12.85;;
53652;SDS011;39553;52.954;5.932;2023-05-10T00:56:17;18.45;;;11.15;;
53652;SDS011;39553;52.954;5.932;2023-05-10T00:58:42;13.55;;;7.65;;
53652;SDS011;39553;52.954;5.932;2023-05-10T01:01:09;16.63;;;8.98;;
53652;SDS011;39553;52.954;5.932;2023-05-10T01:03:35;16.20;;;9.23;;
53652;SDS011;39553;52.954;5.932;2023-05-10T01:06:03;10.30;;;6.03;;
53652;SDS011;39553;52.954;5.932;2023-05-10T01:08:29;17.08;;;10.27;;
53652;SDS011;39553;52.954;5.932;2023-05-10T01:10:55;11.63;;;6.70;;
53652;SDS011;39553;52.954;5.932;2023-05-10T01:13:37;11.43;;;7.68;;
53652;SDS011;39553;52.954;5.932;2023-05-10T01:16:06;7.05;;;5.18;;
53652;SDS011;39553;52.954;5.932;2023-05-10T01:18:33;10.40;;;6.82;;
53652;SDS011;39553;52.954;5.932;2023-05-10T01:21:48;7.90;;;5.25;;
53652;SDS011;39553;52.954;5.932;2023-05-10T01:29:39;5.15;;;3.38;;
53652;SDS011;39553;52.954;5.932;2023-05-10T01:38:04;6.55;;;3.65;;
53652;SDS011;39553;52.954;5.932;2023-05-10T01:43:08;9.68;;;5.22;;
53652;SDS011;39553;52.954;5.932;2023-05-10T01:45:43;9.43;;;5.28;;
53652;SDS011;39553;52.954;5.932;2023-05-10T01:48:17;12.75;;;6.93;;
53652;SDS011;39553;52.954;5.932;2023-05-10T01:50:45;10.75;;;5.28;;
53652;SDS011;39553;52.954;5.932;2023-05-10T01:53:13;6.28;;;3.45;;
53652;SDS011;39553;52.954;5.932;2023-05-10T01:55:51;6.95;;;3.80;;
53652;SDS011;39553;52.954;5.932;2023-05-10T01:58:26;7.88;;;5.10;;
53652;SDS011;39553;52.954;5.932;2023-05-10T02:00:55;8.75;;;3.47;;
53652;SDS011;39553;52.954;5.932;2023-05-10T02:03:25;7.80;;;4.38;;
53652;SDS011;39553;52.954;5.932;2023-05-10T02:05:53;8.65;;;4.43;;
53652;SDS011;39553;52.954;5.932;2023-05-10T02:08:21;7.80;;;5.20;;
53652;SDS011;39553;52.954;5.932;2023-05-10T02:10:49;9.90;;;6.03;;
53652;SDS011;39553;52.954;5.932;2023-05-10T02:13:17;5.75;;;3.33;;
53652;SDS011;39553;52.954;5.932;2023-05-10T02:15:44;7.97;;;5.15;;
53652;SDS011;39553;52.954;5.932;2023-05-10T02:18:13;7.00;;;4.38;;
53652;SDS011;39553;52.954;5.932;2023-05-10T02:20:40;9.38;;;6.30;;
53652;SDS011;39553;52.954;5.932;2023-05-10T02:23:08;6.07;;;3.22;;
53652;SDS011;39553;52.954;5.932;2023-05-10T02:25:36;8.80;;;4.68;;
53652;SDS011;39553;52.954;5.932;2023-05-10T02:28:04;8.57;;;4.20;;
53652;SDS011;39553;52.954;5.932;2023-05-10T02:30:32;6.80;;;2.90;;
53652;SDS011;39553;52.954;5.932;2023-05-10T02:33:00;6.63;;;4.47;;
53652;SDS011;39553;52.954;5.932;2023-05-10T02:35:28;4.55;;;2.90;;
53652;SDS011;39553;52.954;5.932;2023-05-10T02:37:55;7.32;;;4.47;;
53652;SDS011;39553;52.954;5.932;2023-05-10T02:40:23;7.00;;;4.25;;
53652;SDS011;39553;52.954;5.932;2023-05-10T02:42:52;7.53;;;4.97;;
53652;SDS011;39553;52.954;5.932;2023-05-10T02:45:20;6.85;;;4.90;;
53652;SDS011;39553;52.954;5.932;2023-05-10T02:47:49;9.43;;;5.60;;
53652;SDS011;39553;52.954;5.932;2023-05-10T02:50:16;8.43;;;6.10;;
53652;SDS011;39553;52.954;5.932;2023-05-10T02:52:49;6.00;;;2.90;;
53652;SDS011;39553;52.954;5.932;2023-05-10T02:55:21;8.35;;;5.72;;
53652;SDS011;39553;52.954;5.932;2023-05-10T02:57:51;9.02;;;5.30;;
53652;SDS011;39553;52.954;5.932;2023-05-10T03:00:21;7.90;;;6.20;;
53652;SDS011;39553;52.954;5.932;2023-05-10T03:02:49;8.57;;;5.07;;
53652;SDS011;39553;52.954;5.932;2023-05-10T03:05:14;9.90;;;5.07;;
53652;SDS011;39553;52.954;5.932;2023-05-10T03:07:40;8.45;;;5.50;;
53652;SDS011;39553;52.954;5.932;2023-05-10T03:10:07;10.52;;;5.93;;
53652;SDS011;39553;52.954;5.932;2023-05-10T03:12:38;4.10;;;3.20;;
53652;SDS011;39553;52.954;5.932;2023-05-10T03:20:41;5.95;;;4.60;;
53652;SDS011;39553;52.954;5.932;2023-05-10T03:25:44;5.63;;;4.03;;
53652;SDS011;39553;52.954;5.932;2023-05-10T03:28:12;5.25;;;3.53;;
53652;SDS011;39553;52.954;5.932;2023-05-10T03:33:15;5.65;;;3.80;;
53652;SDS011;39553;52.954;5.932;2023-05-10T03:35:41;5.53;;;4.00;;
53652;SDS011;39553;52.954;5.932;2023-05-10T03:38:09;7.30;;;4.53;;
53652;SDS011;39553;52.954;5.932;2023-05-10T03:43:33;6.32;;;4.68;;
53652;SDS011;39553;52.954;5.932;2023-05-10T03:46:01;8.18;;;5.28;;
53652;SDS011;39553;52.954;5.932;2023-05-10T03:48:28;6.13;;;4.30;;
53652;SDS011;39553;52.954;5.932;2023-05-10T03:50:54;6.63;;;4.35;;
53652;SDS011;39553;52.954;5.932;2023-05-10T03:53:20;8.35;;;4.45;;
53652;SDS011;39553;52.954;5.932;2023-05-10T03:55:46;9.02;;;5.38;;
53652;SDS011;39553;52.954;5.932;2023-05-10T03:58:12;7.78;;;5.65;;
53652;SDS011;39553;52.954;5.932;2023-05-10T04:00:39;7.22;;;4.70;;
53652;SDS011;39553;52.954;5.932;2023-05-10T04:03:10;6.00;;;4.95;;
53652;SDS011;39553;52.954;5.932;2023-05-10T04:05:36;7.32;;;4.45;;
53652;SDS011;39553;52.954;5.932;2023-05-10T04:08:02;4.30;;;3.25;;
53652;SDS011;39553;52.954;5.932;2023-05-10T04:10:29;7.35;;;5.20;;
53652;SDS011;39553;52.954;5.932;2023-05-10T04:12:55;7.35;;;5.43;;
53652;SDS011;39553;52.954;5.932;2023-05-10T04:15:21;7.75;;;5.05;;
53652;SDS011;39553;52.954;5.932;2023-05-10T04:17:47;5.30;;;4.38;;
53652;SDS011;39553;52.954;5.932;2023-05-10T04:20:13;4.10;;;2.45;;
53652;SDS011;39553;52.954;5.932;2023-05-10T04:22:39;7.10;;;4.15;;
53652;SDS011;39553;52.954;5.932;2023-05-10T04:30:26;6.20;;;4.82;;
53652;SDS011;39553;52.954;5.932;2023-05-10T04:32:54;6.13;;;4.90;;
53652;SDS011;39553;52.954;5.932;2023-05-10T04:37:55;5.82;;;3.80;;
53652;SDS011;39553;52.954;5.932;2023-05-10T04:40:21;3.97;;;2.95;;
53652;SDS011;39553;52.954;5.932;2023-05-10T04:42:47;4.55;;;3.17;;
53652;SDS011;39553;52.954;5.932;2023-05-10T04:45:14;6.00;;;4.65;;
53652;SDS011;39553;52.954;5.932;2023-05-10T04:47:42;5.93;;;4.65;;
53652;SDS011;39553;52.954;5.932;2023-05-10T04:50:15;4.78;;;3.22;;
53652;SDS011;39553;52.954;5.932;2023-05-10T04:52:50;6.53;;;4.00;;
53652;SDS011;39553;52.954;5.932;2023-05-10T04:55:16;6.30;;;3.50;;
53652;SDS011;39553;52.954;5.932;2023-05-10T04:57:48;5.32;;;3.45;;
53652;SDS011;39553;52.954;5.932;2023-05-10T05:00:17;4.90;;;2.65;;
53652;SDS011;39553;52.954;5.932;2023-05-10T05:02:48;5.30;;;1.98;;
53652;SDS011;39553;52.954;5.932;2023-05-10T05:05:26;5.95;;;3.55;;
53652;SDS011;39553;52.954;5.932;2023-05-10T05:08:02;6.50;;;4.50;;
53652;SDS011;39553;52.954;5.932;2023-05-10T05:10:34;5.45;;;3.65;;
53652;SDS011;39553;52.954;5.932;2023-05-10T05:13:02;6.10;;;3.90;;
53652;SDS011;39553;52.954;5.932;2023-05-10T05:15:31;4.63;;;3.70;;
53652;SDS011;39553;52.954;5.932;2023-05-10T05:17:57;4.50;;;2.92;;
53652;SDS011;39553;52.954;5.932;2023-05-10T05:20:23;3.42;;;2.70;;
53652;SDS011;39553;52.954;5.932;2023-05-10T05:22:53;2.85;;;1.38;;
53652;SDS011;39553;52.954;5.932;2023-05-10T05:25:22;4.43;;;2.78;;
53652;SDS011;39553;52.954;5.932;2023-05-10T05:28:04;5.68;;;2.95;;
53652;SDS011;39553;52.954;5.932;2023-05-10T05:30:30;6.97;;;3.92;;
53652;SDS011;39553;52.954;5.932;2023-05-10T05:33:02;5.82;;;3.45;;
53652;SDS011;39553;52.954;5.932;2023-05-10T05:35:31;5.88;;;3.75;;
53652;SDS011;39553;52.954;5.932;2023-05-10T05:38:01;5.65;;;3.72;;
53652;SDS011;39553;52.954;5.932;2023-05-10T05:40:33;5.95;;;4.35;;
53652;SDS011;39553;52.954;5.932;2023-05-10T05:42:59;7.90;;;5.03;;
53652;SDS011;39553;52.954;5.932;2023-05-10T05:45:25;8.27;;;5.47;;
53652;SDS011;39553;52.954;5.932;2023-05-10T05:48:00;7.20;;;4.50;;
53652;SDS011;39553;52.954;5.932;2023-05-10T05:50:26;8.35;;;5.03;;
53652;SDS011;39553;52.954;5.932;2023-05-10T05:52:53;7.63;;;5.40;;
53652;SDS011;39553;52.954;5.932;2023-05-10T05:58:36;6.60;;;4.22;;
53652;SDS011;39553;52.954;5.932;2023-05-10T06:01:02;8.20;;;5.43;;
53652;SDS011;39553;52.954;5.932;2023-05-10T06:03:28;9.23;;;5.70;;
53652;SDS011;39553;52.954;5.932;2023-05-10T06:06:13;5.30;;;2.20;;
53652;SDS011;39553;52.954;5.932;2023-05-10T06:08:39;3.75;;;2.63;;
53652;SDS011;39553;52.954;5.932;2023-05-10T06:11:05;3.80;;;2.25;;
53652;SDS011;39553;52.954;5.932;2023-05-10T06:13:32;5.82;;;3.78;;
53652;SDS011;39553;52.954;5.932;2023-05-10T06:19:20;5.50;;;3.40;;
53652;SDS011;39553;52.954;5.932;2023-05-10T06:21:51;5.53;;;3.22;;
53652;SDS011;39553;52.954;5.932;2023-05-10T06:24:17;5.78;;;2.42;;
53652;SDS011;39553;52.954;5.932;2023-05-10T06:26:43;3.67;;;1.95;;
53652;SDS011;39553;52.954;5.932;2023-05-10T06:29:09;2.55;;;1.65;;
53652;SDS011;39553;52.954;5.932;2023-05-10T06:31:44;5.03;;;3.50;;
53652;SDS011;39553;52.954;5.932;2023-05-10T06:34:11;3.47;;;2.15;;
53652;SDS011;39553;52.954;5.932;2023-05-10T06:36:40;3.80;;;2.53;;
53652;SDS011;39553;52.954;5.932;2023-05-10T06:41:59;3.58;;;2.05;;
53652;SDS011;39553;52.954;5.932;2023-05-10T06:44:31;2.58;;;1.95;;
53652;SDS011;39553;52.954;5.932;2023-05-10T06:47:13;4.13;;;2.83;;
53652;SDS011;39553;52.954;5.932;2023-05-10T06:49:52;2.30;;;1.75;;
53652;SDS011;39553;52.954;5.932;2023-05-10T06:52:21;4.40;;;2.63;;
53652;SDS011;39553;52.954;5.932;2023-05-10T06:54:59;5.55;;;2.85;;
53652;SDS011;39553;52.954;5.932;2023-05-10T06:57:31;3.47;;;2.40;;
53652;SDS011;39553;52.954;5.932;2023-05-10T07:00:06;4.25;;;2.78;;
53652;SDS011;39553;52.954;5.932;2023-05-10T07:02:35;4.10;;;2.55;;
53652;SDS011;39553;52.954;5.932;2023-05-10T07:05:01;4.85;;;3.78;;
53652;SDS011;39553;52.954;5.932;2023-05-10T07:07:30;3.13;;;1.80;;
53652;SDS011;39553;52.954;5.932;2023-05-10T07:09:57;3.45;;;2.50;;
53652;SDS011;39553;52.954;5.932;2023-05-10T07:12:26;2.95;;;1.92;;
53652;SDS011;39553;52.954;5.932;2023-05-10T07:14:55;5.07;;;2.65;;
53652;SDS011;39553;52.954;5.932;2023-05-10T07:17:21;3.67;;;2.75;;
53652;SDS011;39553;52.954;5.932;2023-05-10T07:19:51;2.92;;;2.13;;
53652;SDS011;39553;52.954;5.932;2023-05-10T07:22:17;5.18;;;2.60;;
53652;SDS011;39553;52.954;5.932;2023-05-10T07:24:46;6.13;;;3.47;;
53652;SDS011;39553;52.954;5.932;2023-05-10T07:27:12;4.30;;;2.08;;
53652;SDS011;39553;52.954;5.932;2023-05-10T07:29:54;4.40;;;2.60;;
53652;SDS011;39553;52.954;5.932;2023-05-10T07:32:37;3.63;;;2.38;;
53652;SDS011;39553;52.954;5.932;2023-05-10T07:35:04;3.25;;;2.17;;
53652;SDS011;39553;52.954;5.932;2023-05-10T07:37:33;4.32;;;2.38;;
53652;SDS011;39553;52.954;5.932;2023-05-10T07:40:14;4.95;;;2.38;;
53652;SDS011;39553;52.954;5.932;2023-05-10T07:43:07;4.45;;;2.80;;
53652;SDS011;39553;52.954;5.932;2023-05-10T07:45:42;3.58;;;2.63;;
53652;SDS011;39553;52.954;5.932;2023-05-10T07:48:28;3.88;;;2.28;;
53652;SDS011;39553;52.954;5.932;2023-05-10T07:50:54;2.83;;;1.98;;
53652;SDS011;39553;52.954;5.932;2023-05-10T07:53:25;4.35;;;1.90;;
53652;SDS011;39553;52.954;5.932;2023-05-10T07:55:53;4.13;;;2.65;;
53652;SDS011;39553;52.954;5.932;2023-05-10T07:58:23;2.28;;;1.58;;
53652;SDS011;39553;52.954;5.932;2023-05-10T08:00:49;3.83;;;3.00;;
53652;SDS011;39553;52.954;5.932;2023-05-10T08:03:18;4.25;;;1.92;;
53652;SDS011;39553;52.954;5.932;2023-05-10T08:05:50;3.38;;;1.88;;
53652;SDS011;39553;52.954;5.932;2023-05-10T08:08:24;3.35;;;2.10;;
53652;SDS011;39553;52.954;5.932;2023-05-10T08:10:51;3.72;;;2.58;;
53652;SDS011;39553;52.954;5.932;2023-05-10T08:13:20;3.40;;;2.17;;
53652;SDS011;39553;52.954;5.932;2023-05-10T08:15:46;2.88;;;1.95;;
53652;SDS011;39553;52.954;5.932;2023-05-10T08:18:33;4.68;;;1.90;;
53652;SDS011;39553;52.954;5.932;2023-05-10T08:21:02;3.58;;;2.65;;
53652;SDS011;39553;52.954;5.932;2023-05-10T08:29:32;5.10;;;2.63;;
53652;SDS011;39553;52.954;5.932;2023-05-10T08:31:58;4.18;;;2.45;;
53652;SDS011;39553;52.954;5.932;2023-05-10T08:34:26;5.32;;;3.05;;
53652;SDS011;39553;52.954;5.932;2023-05-10T08:36:52;4.93;;;2.53;;
53652;SDS011;39553;52.954;5.932;2023-05-10T08:39:18;4.03;;;2.90;;
53652;SDS011;39553;52.954;5.932;2023-05-10T08:41:47;4.70;;;3.05;;
53652;SDS011;39553;52.954;5.932;2023-05-10T08:47:47;4.00;;;3.22;;
53652;SDS011;39553;52.954;5.932;2023-05-10T08:50:24;5.45;;;3.08;;
53652;SDS011;39553;52.954;5.932;2023-05-10T08:53:10;7.32;;;3.33;;
53652;SDS011;39553;52.954;5.932;2023-05-10T08:55:38;5.63;;;3.60;;
53652;SDS011;39553;52.954;5.932;2023-05-10T08:58:05;4.88;;;2.85;;
53652;SDS011;39553;52.954;5.932;2023-05-10T09:00:32;3.78;;;2.92;;
53652;SDS011;39553;52.954;5.932;2023-05-10T09:02:59;4.82;;;3.47;;
53652;SDS011;39553;52.954;5.932;2023-05-10T09:05:25;4.68;;;2.65;;
53652;SDS011;39553;52.954;5.932;2023-05-10T09:07:52;4.18;;;3.15;;
53652;SDS011;39553;52.954;5.932;2023-05-10T09:10:18;6.97;;;3.55;;
53652;SDS011;39553;52.954;5.932;2023-05-10T09:12:45;3.67;;;2.47;;
53652;SDS011;39553;52.954;5.932;2023-05-10T09:15:12;4.75;;;3.53;;
53652;SDS011;39553;52.954;5.932;2023-05-10T09:17:52;8.13;;;2.42;;
53652;SDS011;39553;52.954;5.932;2023-05-10T09:20:32;3.05;;;2.05;;
53652;SDS011;39553;52.954;5.932;2023-05-10T09:23:26;5.10;;;2.92;;
53652;SDS011;39553;52.954;5.932;2023-05-10T09:26:12;4.43;;;2.83;;
53652;SDS011;39553;52.954;5.932;2023-05-10T09:29:00;8.38;;;3.25;;
53652;SDS011;39553;52.954;5.932;2023-05-10T09:31:55;3.28;;;2.30;;
53652;SDS011;39553;52.954;5.932;2023-05-10T09:34:31;4.80;;;2.75;;
53652;SDS011;39553;52.954;5.932;2023-05-10T09:37:08;5.38;;;2.67;;
53652;SDS011;39553;52.954;5.932;2023-05-10T09:39:51;4.07;;;2.90;;
53652;SDS011;39553;52.954;5.932;2023-05-10T09:42:20;5.20;;;2.53;;
53652;SDS011;39553;52.954;5.932;2023-05-10T09:44:46;5.90;;;3.08;;
53652;SDS011;39553;52.954;5.932;2023-05-10T09:47:16;4.47;;;3.13;;
53652;SDS011;39553;52.954;5.932;2023-05-10T09:49:44;4.25;;;2.95;;
53652;SDS011;39553;52.954;5.932;2023-05-10T09:52:15;5.20;;;3.70;;
53652;SDS011;39553;52.954;5.932;2023-05-10T09:54:44;5.60;;;3.42;;
53652;SDS011;39553;52.954;5.932;2023-05-10T09:57:23;7.10;;;4.13;;
53652;SDS011;39553;52.954;5.932;2023-05-10T09:59:50;7.80;;;4.93;;
53652;SDS011;39553;52.954;5.932;2023-05-10T10:02:19;5.65;;;3.47;;
53652;SDS011;39553;52.954;5.932;2023-05-10T10:04:47;5.97;;;3.65;;
53652;SDS011;39553;52.954;5.932;2023-05-10T10:07:17;4.32;;;3.15;;
53652;SDS011;39553;52.954;5.932;2023-05-10T10:09:49;4.55;;;3.20;;
53652;SDS011;39553;52.954;5.932;2023-05-10T10:12:18;7.13;;;3.42;;
53652;SDS011;39553;52.954;5.932;2023-05-10T10:14:48;4.78;;;3.58;;
53652;SDS011;39553;52.954;5.932;2023-05-10T10:17:42;5.97;;;3.50;;
53652;SDS011;39553;52.954;5.932;2023-05-10T10:20:09;4.40;;;2.40;;
53652;SDS011;39553;52.954;5.932;2023-05-10T10:22:45;5.47;;;2.72;;
53652;SDS011;39553;52.954;5.932;2023-05-10T10:25:34;4.53;;;2.80;;
53652;SDS011;39553;52.954;5.932;2023-05-10T10:31:32;4.22;;;2.67;;
53652;SDS011;39553;52.954;5.932;2023-05-10T10:34:27;7.55;;;4.43;;
53652;SDS011;39553;52.954;5.932;2023-05-10T10:37:12;9.30;;;5.28;;
53652;SDS011;39553;52.954;5.932;2023-05-10T10:40:27;8.82;;;4.60;;
53652;SDS011;39553;52.954;5.932;2023-05-10T10:48:49;12.82;;;7.30;;
53652;SDS011;39553;52.954;5.932;2023-05-10T10:51:39;11.02;;;5.75;;
53652;SDS011;39553;52.954;5.932;2023-05-10T10:57:50;10.63;;;5.72;;
53652;SDS011;39553;52.954;5.932;2023-05-10T11:00:21;13.27;;;7.03;;
53652;SDS011;39553;52.954;5.932;2023-05-10T11:02:53;12.35;;;7.90;;
53652;SDS011;39553;52.954;5.932;2023-05-10T11:07:55;12.32;;;7.57;;
53652;SDS011;39553;52.954;5.932;2023-05-10T11:10:22;14.85;;;8.80;;
53652;SDS011;39553;52.954;5.932;2023-05-10T11:12:59;12.48;;;6.78;;
53652;SDS011;39553;52.954;5.932;2023-05-10T11:15:32;13.35;;;8.18;;
53652;SDS011;39553;52.954;5.932;2023-05-10T11:18:20;12.57;;;7.60;;
53652;SDS011;39553;52.954;5.932;2023-05-10T11:20:55;13.00;;;6.50;;
53652;SDS011;39553;52.954;5.932;2023-05-10T11:23:28;12.32;;;7.53;;
53652;SDS011;39553;52.954;5.932;2023-05-10T11:25:59;14.65;;;7.68;;
53652;SDS011;39553;52.954;5.932;2023-05-10T11:28:29;13.55;;;6.38;;
53652;SDS011;39553;52.954;5.932;2023-05-10T11:30:55;13.13;;;7.45;;
53652;SDS011;39553;52.954;5.932;2023-05-10T11:33:22;15.77;;;8.48;;
53652;SDS011;39553;52.954;5.932;2023-05-10T11:35:48;13.57;;;8.68;;
53652;SDS011;39553;52.954;5.932;2023-05-10T11:38:17;13.20;;;7.63;;
53652;SDS011;39553;52.954;5.932;2023-05-10T11:40:55;12.68;;;7.43;;
53652;SDS011;39553;52.954;5.932;2023-05-10T11:43:24;12.82;;;7.30;;
53652;SDS011;39553;52.954;5.932;2023-05-10T11:45:58;13.52;;;7.53;;
53652;SDS011;39553;52.954;5.932;2023-05-10T11:48:27;11.27;;;6.97;;
53652;SDS011;39553;52.954;5.932;2023-05-10T11:50:55;10.48;;;6.82;;
53652;SDS011;39553;52.954;5.932;2023-05-10T11:53:24;9.27;;;5.78;;
53652;SDS011;39553;52.954;5.932;2023-05-10T11:55:54;9.95;;;5.68;;
53652;SDS011;39553;52.954;5.932;2023-05-10T11:58:20;10.32;;;6.15;;
53652;SDS011;39553;52.954;5.932;2023-05-10T12:00:49;7.72;;;4.07;;
53652;SDS011;39553;52.954;5.932;2023-05-10T12:03:16;9.48;;;5.72;;
53652;SDS011;39553;52.954;5.932;2023-05-10T12:16:42;12.48;;;7.85;;
53652;SDS011;39553;52.954;5.932;2023-05-10T12:19:09;12.10;;;8.15;;
53652;SDS011;39553;52.954;5.932;2023-05-10T12:21:35;14.57;;;7.25;;
53652;SDS011;39553;52.954;5.932;2023-05-10T12:24:02;12.70;;;7.57;;
53652;SDS011;39553;52.954;5.932;2023-05-10T12:26:31;14.02;;;7.45;;
53652;SDS011;39553;52.954;5.932;2023-05-10T12:34:25;12.75;;;7.05;;
53652;SDS011;39553;52.954;5.932;2023-05-10T12:36:54;13.20;;;7.00;;
53652;SDS011;39553;52.954;5.932;2023-05-10T12:39:20;13.63;;;6.80;;
53652;SDS011;39553;52.954;5.932;2023-05-10T12:41:46;13.75;;;7.13;;
53652;SDS011;39553;52.954;5.932;2023-05-10T12:44:12;9.02;;;5.95;;
53652;SDS011;39553;52.954;5.932;2023-05-10T12:46:38;9.70;;;5.63;;
53652;SDS011;39553;52.954;5.932;2023-05-10T12:49:04;11.20;;;7.00;;
53652;SDS011;39553;52.954;5.932;2023-05-10T12:51:30;11.68;;;7.25;;
53652;SDS011;39553;52.954;5.932;2023-05-10T12:53:56;12.48;;;7.10;;
53652;SDS011;39553;52.954;5.932;2023-05-10T12:56:25;9.77;;;6.05;;
53652;SDS011;39553;52.954;5.932;2023-05-10T12:58:52;11.18;;;6.00;;
53652;SDS011;39553;52.954;5.932;2023-05-10T13:01:24;9.63;;;6.85;;
53652;SDS011;39553;52.954;5.932;2023-05-10T13:04:10;12.65;;;7.40;;
53652;SDS011;39553;52.954;5.932;2023-05-10T13:06:36;8.52;;;4.95;;
53652;SDS011;39553;52.954;5.932;2023-05-10T13:09:06;8.88;;;5.20;;
53652;SDS011;39553;52.954;5.932;2023-05-10T13:11:35;6.53;;;3.88;;
53652;SDS011;39553;52.954;5.932;2023-05-10T13:14:22;6.22;;;4.60;;
53652;SDS011;39553;52.954;5.932;2023-05-10T13:16:48;6.00;;;3.80;;
53652;SDS011;39553;52.954;5.932;2023-05-10T13:19:15;4.43;;;3.03;;
53652;SDS011;39553;52.954;5.932;2023-05-10T13:21:54;8.05;;;3.42;;
53652;SDS011;39553;52.954;5.932;2023-05-10T13:26:56;5.70;;;3.85;;
53652;SDS011;39553;52.954;5.932;2023-05-10T13:29:25;5.38;;;4.03;;
53652;SDS011;39553;52.954;5.932;2023-05-10T13:31:51;9.07;;;4.63;;
53652;SDS011;39553;52.954;5.932;2023-05-10T13:34:17;5.28;;;4.15;;
53652;SDS011;39553;52.954;5.932;2023-05-10T13:36:45;7.05;;;3.40;;
53652;SDS011;39553;52.954;5.932;2023-05-10T13:39:13;5.88;;;3.45;;
53652;SDS011;39553;52.954;5.932;2023-05-10T13:41:39;4.45;;;3.08;;
53652;SDS011;39553;52.954;5.932;2023-05-10T13:44:06;6.22;;;3.83;;
53652;SDS011;39553;52.954;5.932;2023-05-10T13:46:32;4.78;;;3.55;;
53652;SDS011;39553;52.954;5.932;2023-05-10T14:00:00;8.15;;;4.20;;
53652;SDS011;39553;52.954;5.932;2023-05-10T14:02:28;5.03;;;3.75;;
53652;SDS011;39553;52.954;5.932;2023-05-10T14:04:54;5.65;;;3.58;;
53652;SDS011;39553;52.954;5.932;2023-05-10T14:07:21;5.65;;;3.50;;
53652;SDS011;39553;52.954;5.932;2023-05-10T14:09:47;7.32;;;4.47;;
53652;SDS011;39553;52.954;5.932;2023-05-10T14:12:14;6.15;;;4.25;;
53652;SDS011;39553;52.954;5.932;2023-05-10T14:14:40;7.10;;;3.90;;
53652;SDS011;39553;52.954;5.932;2023-05-10T14:17:10;6.50;;;3.40;;
53652;SDS011;39553;52.954;5.932;2023-05-10T14:19:35;4.43;;;3.47;;
53652;SDS011;39553;52.954;5.932;2023-05-10T14:27:13;6.88;;;3.50;;
53652;SDS011;39553;52.954;5.932;2023-05-10T14:29:40;4.30;;;3.08;;
53652;SDS011;39553;52.954;5.932;2023-05-10T14:32:06;5.40;;;3.97;;
53652;SDS011;39553;52.954;5.932;2023-05-10T14:34:34;6.68;;;3.80;;
53652;SDS011;39553;52.954;5.932;2023-05-10T14:37:00;7.75;;;5.15;;
53652;SDS011;39553;52.954;5.932;2023-05-10T14:39:26;7.65;;;4.65;;
53652;SDS011;39553;52.954;5.932;2023-05-10T14:41:54;7.97;;;4.82;;
53652;SDS011;39553;52.954;5.932;2023-05-10T14:44:21;7.97;;;4.45;;
53652;SDS011;39553;52.954;5.932;2023-05-10T14:46:47;5.88;;;3.63;;
53652;SDS011;39553;52.954;5.932;2023-05-10T14:49:14;6.28;;;3.97;;
53652;SDS011;39553;52.954;5.932;2023-05-10T14:51:41;7.60;;;4.80;;
53652;SDS011;39553;52.954;5.932;2023-05-10T14:54:07;9.10;;;6.00;;
53652;SDS011;39553;52.954;5.932;2023-05-10T14:56:32;8.55;;;5.03;;
53652;SDS011;39553;52.954;5.932;2023-05-10T14:58:58;10.52;;;6.32;;
53652;SDS011;39553;52.954;5.932;2023-05-10T15:01:25;13.23;;;6.63;;
53652;SDS011;39553;52.954;5.932;2023-05-10T15:03:51;11.75;;;6.07;;
53652;SDS011;39553;52.954;5.932;2023-05-10T15:06:16;13.27;;;7.00;;
53652;SDS011;39553;52.954;5.932;2023-05-10T15:08:47;12.93;;;7.05;;
53652;SDS011;39553;52.954;5.932;2023-05-10T15:11:13;12.00;;;7.43;;
53652;SDS011;39553;52.954;5.932;2023-05-10T15:13:39;9.73;;;6.15;;
53652;SDS011;39553;52.954;5.932;2023-05-10T15:16:05;11.73;;;6.88;;
53652;SDS011;39553;52.954;5.932;2023-05-10T15:18:33;12.00;;;7.65;;
53652;SDS011;39553;52.954;5.932;2023-05-10T15:23:34;11.57;;;7.85;;
53652;SDS011;39553;52.954;5.932;2023-05-10T15:26:03;14.23;;;7.47;;
53652;SDS011;39553;52.954;5.932;2023-05-10T15:28:30;10.40;;;7.22;;
53652;SDS011;39553;52.954;5.932;2023-05-10T15:30:55;10.27;;;7.20;;
53652;SDS011;39553;52.954;5.932;2023-05-10T15:38:32;13.77;;;8.80;;
53652;SDS011;39553;52.954;5.932;2023-05-10T15:40:58;14.02;;;9.07;;
53652;SDS011;39553;52.954;5.932;2023-05-10T15:48:36;14.23;;;9.43;;
53652;SDS011;39553;52.954;5.932;2023-05-10T15:51:04;11.77;;;8.52;;
53652;SDS011;39553;52.954;5.932;2023-05-10T16:01:20;12.07;;;7.43;;
53652;SDS011;39553;52.954;5.932;2023-05-10T16:03:46;10.98;;;7.20;;
53652;SDS011;39553;52.954;5.932;2023-05-10T16:16:35;10.75;;;7.15;;
53652;SDS011;39553;52.954;5.932;2023-05-10T16:51:15;9.52;;;6.05;;
53652;SDS011;39553;52.954;5.932;2023-05-10T16:53:47;11.15;;;6.20;;
53652;SDS011;39553;52.954;5.932;2023-05-10T16:59:03;8.52;;;5.82;;
53652;SDS011;39553;52.954;5.932;2023-05-10T17:01:40;9.52;;;5.35;;
53652;SDS011;39553;52.954;5.932;2023-05-10T17:04:12;7.95;;;4.53;;
53652;SDS011;39553;52.954;5.932;2023-05-10T17:06:42;7.97;;;5.85;;
53652;SDS011;39553;52.954;5.932;2023-05-10T17:09:10;11.35;;;7.25;;
53652;SDS011;39553;52.954;5.932;2023-05-10T17:11:37;8.98;;;6.03;;
53652;SDS011;39553;52.954;5.932;2023-05-10T17:14:11;10.00;;;6.78;;
53652;SDS011;39553;52.954;5.932;2023-05-10T17:16:38;11.10;;;7.20;;
53652;SDS011;39553;52.954;5.932;2023-05-10T17:19:04;10.18;;;5.82;;
53652;SDS011;39553;52.954;5.932;2023-05-10T17:21:30;9.20;;;7.03;;
53652;SDS011;39553;52.954;5.932;2023-05-10T17:24:01;11.52;;;7.20;;
53652;SDS011;39553;52.954;5.932;2023-05-10T17:26:30;10.27;;;6.63;;
53652;SDS011;39553;52.954;5.932;2023-05-10T17:29:17;12.35;;;6.90;;
53652;SDS011;39553;52.954;5.932;2023-05-10T17:31:49;8.70;;;6.47;;
53652;SDS011;39553;52.954;5.932;2023-05-10T17:34:15;8.27;;;6.30;;
53652;SDS011;39553;52.954;5.932;2023-05-10T17:36:41;8.98;;;6.35;;
53652;SDS011;39553;52.954;5.932;2023-05-10T17:39:07;7.68;;;6.20;;
53652;SDS011;39553;52.954;5.932;2023-05-10T17:41:33;9.25;;;6.72;;
53652;SDS011;39553;52.954;5.932;2023-05-10T17:43:59;6.85;;;5.55;;
53652;SDS011;39553;52.954;5.932;2023-05-10T17:46:28;9.88;;;6.05;;
53652;SDS011;39553;52.954;5.932;2023-05-10T17:49:12;8.82;;;6.10;;